createdAt,value
2023-05-25T00:00:27.624Z,6.85
2023-05-25T00:05:29.371Z,12.25
2023-05-25T00:10:31.159Z,11.10
2023-05-25T00:15:32.883Z,7.88
2023-05-25T00:20:34.749Z,11.60
2023-05-25T00:25:36.506Z,6.85
2023-05-25T00:30:38.454Z,9.85
2023-05-25T00:35:42.769Z,12.90
2023-05-25T00:40:45.408Z,6.15
2023-05-25T00:45:48.093Z,12.07
2023-05-25T00:50:54.911Z,9.55
2023-05-25T00:56:11.761Z,8.65
2023-05-25T01:01:15.757Z,10.15
2023-05-25T01:06:18.963Z,6.72
2023-05-25T01:11:27.039Z,8.55
2023-05-25T01:16:29.850Z,8.82
2023-05-25T01:22:01.318Z,7.03
2023-05-25T01:27:32.467Z,10.55
2023-05-25T01:32:35.377Z,7.18
2023-05-25T01:37:38.007Z,6.35
2023-05-25T01:42:39.749Z,10.02
2023-05-25T01:47:50.491Z,8.43
2023-05-25T01:53:16.169Z,9.25
2023-05-25T01:58:19.732Z,8.23
2023-05-25T02:03:21.779Z,7.90
2023-05-25T02:08:24.352Z,11.07
2023-05-25T02:13:26.317Z,15.35
2023-05-25T02:18:28.427Z,8.82
2023-05-25T02:23:30.409Z,10.38
2023-05-25T02:28:32.147Z,6.65
2023-05-25T02:33:33.868Z,12.02
2023-05-25T02:38:35.602Z,11.15
2023-05-25T02:43:37.567Z,7.43
2023-05-25T02:48:39.662Z,12.27
2023-05-25T02:53:41.751Z,10.45
2023-05-25T02:58:43.591Z,9.75
2023-05-25T03:03:52.233Z,6.85
2023-05-25T03:08:55.107Z,8.30
2023-05-25T03:13:56.907Z,7.50
2023-05-25T03:18:58.790Z,10.27
2023-05-25T03:24:00.720Z,7.50
2023-05-25T03:29:02.562Z,9.73
2023-05-25T03:34:04.492Z,8.27
2023-05-25T03:39:10.252Z,8.82
2023-05-25T03:44:12.216Z,7.47
2023-05-25T03:49:15.348Z,7.57
2023-05-25T03:54:17.220Z,8.50
2023-05-25T03:59:19.073Z,9.52
2023-05-25T04:04:22.274Z,10.23
2023-05-25T04:09:24.089Z,8.90
2023-05-25T04:14:25.909Z,8.40
2023-05-25T04:19:27.936Z,11.02
2023-05-25T04:24:29.666Z,9.55
2023-05-25T04:29:32.160Z,11.85
2023-05-25T04:34:54.546Z,11.10
2023-05-25T04:40:08.847Z,16.45
2023-05-25T04:45:10.897Z,10.20
2023-05-25T04:50:13.168Z,8.43
2023-05-25T04:55:15.336Z,9.77
2023-05-25T05:00:20.717Z,12.07
2023-05-25T05:05:23.541Z,11.27
2023-05-25T05:10:26.882Z,12.45
2023-05-25T05:15:32.480Z,9.90
2023-05-25T05:20:35.486Z,7.95
2023-05-25T05:25:38.666Z,13.82
2023-05-25T05:30:41.185Z,8.90
2023-05-25T05:35:44.571Z,11.98
2023-05-25T05:40:53.636Z,13.30
2023-05-25T05:45:57.801Z,12.68
2023-05-25T05:50:59.932Z,10.43
2023-05-25T05:56:03.251Z,12.88
2023-05-25T06:01:09.168Z,14.52
2023-05-25T06:06:11.434Z,8.10
2023-05-25T06:11:14.396Z,11.48
2023-05-25T06:16:16.738Z,11.88
2023-05-25T06:21:18.837Z,9.27
2023-05-25T06:26:23.806Z,12.18
2023-05-25T06:31:26.584Z,8.98
2023-05-25T06:36:28.586Z,12.63
2023-05-25T06:41:31.128Z,6.43
2023-05-25T06:46:33.568Z,6.45
2023-05-25T06:51:35.586Z,7.38
2023-05-25T06:56:37.472Z,11.70
2023-05-25T07:01:39.521Z,8.13
2023-05-25T07:06:41.606Z,7.38
2023-05-25T07:11:43.534Z,9.35
2023-05-25T07:16:46.016Z,7.80
2023-05-25T07:21:48.088Z,8.82
2023-05-25T07:26:50.240Z,8.23
2023-05-25T07:31:52.388Z,8.23
2023-05-25T07:36:54.434Z,5.80
2023-05-25T07:41:56.395Z,7.53
2023-05-25T07:46:58.318Z,6.10
2023-05-25T07:52:00.055Z,6.25
2023-05-25T07:57:01.802Z,7.00
2023-05-25T08:02:04.021Z,7.05
2023-05-25T08:07:05.836Z,8.55
2023-05-25T08:12:30.592Z,6.88
2023-05-25T08:17:29.410Z,7.10
2023-05-25T08:22:31.377Z,6.25
2023-05-25T08:27:35.451Z,8.02
2023-05-25T08:32:37.688Z,5.63
2023-05-25T08:37:40.076Z,7.20
2023-05-25T08:42:46.105Z,8.55
2023-05-25T08:47:49.243Z,5.32
2023-05-25T08:52:53.307Z,6.25
2023-05-25T08:58:02.794Z,5.63
2023-05-25T09:03:09.393Z,7.45
2023-05-25T09:08:11.525Z,7.55
2023-05-25T09:13:21.770Z,6.10
2023-05-25T09:18:24.950Z,4.70
2023-05-25T09:23:26.658Z,5.97
2023-05-25T09:28:28.449Z,8.05
2023-05-25T09:33:30.803Z,6.40
2023-05-25T09:38:33.074Z,6.75
2023-05-25T09:43:44.499Z,5.28
2023-05-25T09:48:50.319Z,5.97
2023-05-25T09:53:52.220Z,4.05
2023-05-25T09:58:54.375Z,6.57
2023-05-25T10:04:04.288Z,6.38
2023-05-25T10:09:11.377Z,7.10
2023-05-25T10:14:17.927Z,6.30
2023-05-25T10:19:32.304Z,6.25
2023-05-25T10:24:47.964Z,5.78
2023-05-25T10:29:50.455Z,7.22
2023-05-25T10:34:53.304Z,7.38
2023-05-25T10:39:58.091Z,6.53
2023-05-25T10:45:00.616Z,6.32
2023-05-25T10:50:03.515Z,5.28
2023-05-25T10:55:06.004Z,4.85
2023-05-25T11:00:08.963Z,6.72
2023-05-25T11:05:41.019Z,6.13
2023-05-25T11:10:49.251Z,6.95
2023-05-25T11:16:17.668Z,3.40
2023-05-25T11:21:30.308Z,3.65
2023-05-25T11:26:35.751Z,6.18
2023-05-25T11:31:39.970Z,5.83
2023-05-25T11:36:45.650Z,3.13
2023-05-25T11:41:50.290Z,4.55
2023-05-25T11:46:53.703Z,7.82
2023-05-25T11:51:57.527Z,5.35
2023-05-25T11:57:00.373Z,5.18
2023-05-25T12:02:03.874Z,7.15
2023-05-25T12:07:08.043Z,3.42
2023-05-25T12:12:09.945Z,4.80
2023-05-25T12:17:11.934Z,3.65
2023-05-25T12:22:14.735Z,5.05
2023-05-25T12:27:18.850Z,2.88
2023-05-25T12:32:21.008Z,4.18
2023-05-25T12:37:23.667Z,4.28
2023-05-25T12:42:31.329Z,4.68
2023-05-25T12:47:33.640Z,4.80
2023-05-25T12:52:44.233Z,3.88
2023-05-25T12:57:47.555Z,4.60
2023-05-25T13:02:50.788Z,4.82
2023-05-25T13:07:55.204Z,4.68
2023-05-25T13:12:58.695Z,5.22
2023-05-25T13:18:00.968Z,5.03
2023-05-25T13:23:03.532Z,6.72
2023-05-25T13:28:06.738Z,4.50
2023-05-25T13:33:09.929Z,4.60
2023-05-25T13:38:13.983Z,4.47
2023-05-25T13:43:17.256Z,6.72
2023-05-25T13:48:19.482Z,4.30
2023-05-25T13:53:21.984Z,4.40
2023-05-25T13:58:25.406Z,4.50
2023-05-25T14:03:27.839Z,5.15
2023-05-25T14:08:31.158Z,7.15
2023-05-25T14:13:33.610Z,3.97
2023-05-25T14:18:35.645Z,4.50
2023-05-25T14:23:37.521Z,5.53
2023-05-25T14:28:39.624Z,3.97
2023-05-25T14:33:43.091Z,6.60
2023-05-25T14:38:45.150Z,4.32
2023-05-25T14:43:47.115Z,4.40
2023-05-25T14:48:49.456Z,4.35
2023-05-25T14:53:53.443Z,6.90
2023-05-25T14:58:55.555Z,3.90
2023-05-25T15:03:57.799Z,3.20
2023-05-25T15:09:00.013Z,5.68
2023-05-25T15:14:02.076Z,5.20
2023-05-25T15:19:04.259Z,4.10
2023-05-25T15:24:06.574Z,4.47
2023-05-25T15:29:08.587Z,5.32
2023-05-25T15:34:11.418Z,4.25
2023-05-25T15:39:16.634Z,4.53
2023-05-25T15:44:18.774Z,4.30
2023-05-25T15:49:21.061Z,3.97
2023-05-25T15:54:23.242Z,8.75
2023-05-25T15:59:34.737Z,5.05
2023-05-25T16:04:36.540Z,5.07
2023-05-25T16:09:38.202Z,7.30
2023-05-25T16:14:40.680Z,6.15
2023-05-25T16:19:42.463Z,6.85
2023-05-25T16:24:44.116Z,4.22
2023-05-25T16:29:45.817Z,6.03
2023-05-25T16:34:47.460Z,4.68
2023-05-25T16:39:49.267Z,4.93
2023-05-25T16:44:59.323Z,4.93
2023-05-25T16:50:01.062Z,6.47
2023-05-25T16:55:02.856Z,5.03
2023-05-25T17:00:05.563Z,5.35
2023-05-25T17:05:08.532Z,4.95
2023-05-25T17:10:10.703Z,5.97
2023-05-25T17:15:15.972Z,6.60
2023-05-25T17:20:17.831Z,6.25
2023-05-25T17:25:19.631Z,5.25
2023-05-25T17:30:21.660Z,3.22
2023-05-25T17:35:23.385Z,5.80
2023-05-25T17:40:25.090Z,6.43
2023-05-25T17:45:26.795Z,9.05
2023-05-25T17:50:28.851Z,7.00
2023-05-25T17:55:30.597Z,5.40
2023-05-25T18:00:32.342Z,7.03
2023-05-25T18:05:34.168Z,7.50
2023-05-25T18:10:35.834Z,5.72
2023-05-25T18:15:37.501Z,6.15
2023-05-25T18:20:39.193Z,6.43
2023-05-25T18:25:41.133Z,5.13
2023-05-25T18:30:43.008Z,5.43
2023-05-25T18:35:45.029Z,7.88
2023-05-25T18:40:46.908Z,4.85
2023-05-25T18:45:48.560Z,6.45
2023-05-25T18:50:50.589Z,4.32
2023-05-25T18:55:52.336Z,6.07
2023-05-25T19:00:54.080Z,7.00
2023-05-25T19:05:56.051Z,5.85
2023-05-25T19:10:57.832Z,5.88
2023-05-25T19:15:59.657Z,7.20
2023-05-25T19:21:02.299Z,4.82
2023-05-25T19:26:04.075Z,5.40
2023-05-25T19:31:05.871Z,4.95
2023-05-25T19:36:07.976Z,5.25
2023-05-25T19:41:09.958Z,5.68
2023-05-25T19:46:11.743Z,4.55
2023-05-25T19:51:13.592Z,5.20
2023-05-25T19:56:15.531Z,5.32
2023-05-25T20:01:17.294Z,5.15
2023-05-25T20:06:19.332Z,4.90
2023-05-25T20:11:21.040Z,5.78
2023-05-25T20:16:23.456Z,4.22
2023-05-25T20:21:25.328Z,4.28
2023-05-25T20:26:27.688Z,4.82
2023-05-25T20:31:29.559Z,4.07
2023-05-25T20:36:32.938Z,6.03
2023-05-25T20:41:34.771Z,5.75
2023-05-25T20:46:36.589Z,5.30
2023-05-25T20:51:38.301Z,6.68
2023-05-25T20:56:40.059Z,4.47
2023-05-25T21:01:41.834Z,6.55
2023-05-25T21:06:43.577Z,6.13
2023-05-25T21:11:45.688Z,8.68
2023-05-25T21:16:47.457Z,5.25
2023-05-25T21:21:49.259Z,5.85
2023-05-25T21:26:51.265Z,6.40
2023-05-25T21:31:53.067Z,4.60
2023-05-25T21:36:55.267Z,6.75
2023-05-25T21:41:56.960Z,3.58
2023-05-25T21:46:58.814Z,5.63
2023-05-25T21:52:00.684Z,8.75
2023-05-25T21:57:03.804Z,4.25
2023-05-25T22:02:05.707Z,6.53
2023-05-25T22:07:07.838Z,4.25
2023-05-25T22:12:12.336Z,6.47
2023-05-25T22:17:15.330Z,5.57
2023-05-25T22:22:17.119Z,7.57
2023-05-25T22:27:18.874Z,5.47
2023-05-25T22:32:20.722Z,6.45
2023-05-25T22:37:22.547Z,7.70
2023-05-25T22:42:24.362Z,5.63
2023-05-25T22:47:26.130Z,5.68
2023-05-25T22:52:28.015Z,5.68
2023-05-25T22:57:30.076Z,4.97
2023-05-25T23:02:31.950Z,6.13
2023-05-25T23:07:33.842Z,7.20
2023-05-25T23:12:35.716Z,6.90
2023-05-25T23:17:37.478Z,7.13
2023-05-25T23:22:39.455Z,5.22
2023-05-25T23:27:41.182Z,6.03
2023-05-25T23:32:42.904Z,6.93
2023-05-25T23:37:44.783Z,6.13
2023-05-25T23:42:46.516Z,5.40
2023-05-25T23:47:48.225Z,4.72
2023-05-25T23:52:49.938Z,4.30
2023-05-25T23:57:51.640Z,7.57
